Quick Links (Output Below):   Max & Min Temps   /   Climate Reports   /   Zone Forecasts
River Forecasts   /   Forestry Forecasts   /   Aviation Forecasts   /   Radars   /   Features

Terminal Aerodrome Forecast (Hot Springs)

Pick a Site:
Arkadelphia | El Dorado | Fayetteville | Fort Smith | Harrison | Highfill | Hot Springs | Jonesboro
Little Rock | Monticello | Mountain Home | Pine Bluff | Texarkana
 Forecast 

KHOT 221739Z 2218/2318 17007KT 6SM BR VCSH BKN004 OVC015
      WS020/22040KT
      TEMPO 2218/2220 3SM BR OVC004
     FM222000 17008KT P6SM VCSH BKN008 OVC025 WS020/22040KT
      TEMPO 2220/2222 4SM -RA BR OVC008
     FM222200 18009KT P6SM VCSH SCT015 OVC025
      TEMPO 2222/2224 5SM -SHRA BR OVC010
     FM230000 21009KT P6SM VCSH BKN035 BKN250
     FM230400 29007G15KT P6SM VCSH BKN025 BKN250=


 Latest METARs (Observations) 
How to Decode METARs
18Z KHOT 221753Z AUTO 15007KT 2 1/2SM BR OVC004 11/10 A2962 RMK AO2
         SLP028 60000 T01110100 10111 20083 58029
         
17Z KHOT 221653Z AUTO 17006KT 3SM BR OVC004 11/10 A2967 RMK AO2
         RAB28E40 SLP045 P0000 T01060100
         
16Z KHOT 221553Z AUTO 16006KT 2SM BR OVC004 10/09 A2970 RMK AO2 SLP054
         T01000094
         
15Z KHOT 221453Z AUTO 17005KT 9SM OVC005 10/09 A2971 RMK AO2 CIG
         004V009 SLP057 60000 T01000089 56010
         
14Z KHOT 221353Z AUTO 15006KT 4SM BR OVC004 09/08 A2971 RMK AO2
         RAE00B26E47 SLP060 P0000 T00890083
         
13Z KHOT 221253Z AUTO 16007KT 4SM -RA BR OVC003 08/08 A2973 RMK AO2
         RAB49 SLP067 P0000 T00830078
         
12Z KHOT 221153Z AUTO 19005KT 9SM OVC004 08/08 A2974 RMK AO2 SLP069
         T00830078 10100 20083 55007
         
11Z KHOT 221053Z AUTO 13005KT 9SM OVC004 08/07 A2974 RMK AO2 SLP068
         T00830072
         
10Z KHOT 220953Z AUTO 14005KT 9SM OVC005 08/07 A2976 RMK AO2 SLP075
         T00830072
         
09Z KHOT 220853Z AUTO 16003KT 10SM BKN012 BKN019 OVC029 09/06 A2979
         RMK AO2 SLP086 T00890061 56022
         
***** Today's Observations (Above) *****


Back to Main Page
http://www.srh.noaa.gov/lzk/qfcst.php

USA.gov is the U.S. government's official web portal to all federal, state and local government web resources and services.